Time;durP1;ratioP1;P1;durP2;ratioP2;P2;SDS_P1;SDS_P2;PMS_P1;PMS_P2;Temp;Humidity;BMP_temperature;BMP_pressure;BME280_temperature;BME280_humidity;BME280_pressure;Samples;Min_cycle;Max_cycle;Signal;HPM_P1;HPM_P2
2021/11/05 00:00:44;;;;;;;0.30;0.30;;;6.50;99.50;;;;;;5014533;28;20664;-69
2021/11/05 00:03:10;;;;;;;0.30;0.30;;;6.60;99.50;;;;;;5013604;28;20199;-68
2021/11/05 00:05:36;;;;;;;0.30;0.30;;;6.60;99.30;;;;;;5014324;28;20631;-68
2021/11/05 00:08:07;;;;;;;0.30;0.30;;;6.70;99.30;;;;;;5014371;28;20175;-68
2021/11/05 00:10:33;;;;;;;0.40;0.40;;;6.70;99.20;;;;;;5014441;28;20168;-67
2021/11/05 00:12:59;;;;;;;0.38;0.38;;;6.70;99.20;;;;;;5014307;28;20206;-68
2021/11/05 00:15:25;;;;;;;0.40;0.40;;;6.70;99.00;;;;;;5014138;28;20169;-67
2021/11/05 00:17:50;;;;;;;0.30;0.30;;;6.70;98.90;;;;;;5014408;28;20245;-69
2021/11/05 00:20:16;;;;;;;0.30;0.30;;;6.70;98.70;;;;;;5014146;28;20721;-69
2021/11/05 00:22:42;;;;;;;0.30;0.30;;;6.70;98.70;;;;;;5014080;28;20211;-68
2021/11/05 00:25:08;;;;;;;0.30;0.30;;;6.60;98.70;;;;;;5013836;28;20560;-68
2021/11/05 00:27:36;;;;;;;0.30;0.30;;;6.50;98.80;;;;;;5014472;28;20450;-69
2021/11/05 00:30:07;;;;;;;0.38;0.38;;;6.50;99.10;;;;;;5014179;28;20255;-67
2021/11/05 00:32:32;;;;;;;0.30;0.30;;;6.50;99.20;;;;;;5014053;28;20234;-69
2021/11/05 00:34:58;;;;;;;0.30;0.30;;;6.50;99.00;;;;;;5013873;28;20214;-67
2021/11/05 00:37:24;;;;;;;0.30;0.30;;;6.40;99.10;;;;;;5014200;28;20175;-69
2021/11/05 00:39:49;;;;;;;0.30;0.30;;;6.40;99.30;;;;;;5013997;28;20177;-68
2021/11/05 00:42:15;;;;;;;0.30;0.30;;;6.40;99.40;;;;;;5013991;28;20603;-69
2021/11/05 00:44:40;;;;;;;0.40;0.40;;;6.40;99.40;;;;;;5014073;28;20646;-69
2021/11/05 00:47:07;;;;;;;0.30;0.30;;;6.30;99.50;;;;;;5013851;28;20172;-68
2021/11/05 00:49:33;;;;;;;0.30;0.30;;;6.40;99.70;;;;;;5013762;28;20219;-69
2021/11/05 00:51:58;;;;;;;0.30;0.30;;;6.50;99.60;;;;;;5013563;28;20176;-68
2021/11/05 00:54:24;;;;;;;0.80;0.80;;;6.40;99.60;;;;;;5013561;28;20164;-69
2021/11/05 00:56:50;;;;;;;0.30;0.30;;;6.40;99.50;;;;;;5013579;28;20691;-68
2021/11/05 00:59:15;;;;;;;0.33;0.33;;;6.50;99.60;;;;;;5013839;28;20703;-68
2021/11/05 01:01:41;;;;;;;0.40;0.40;;;6.40;99.70;;;;;;5013844;28;20168;-67
2021/11/05 01:04:07;;;;;;;0.40;0.40;;;6.20;99.90;;;;;;5013713;28;20210;-69
2021/11/05 01:06:32;;;;;;;0.30;0.30;;;6.20;99.90;;;;;;5013486;28;20473;-69
2021/11/05 01:08:59;;;;;;;0.30;0.30;;;6.30;99.90;;;;;;5013667;28;20920;-68
2021/11/05 01:11:24;;;;;;;0.30;0.30;;;6.30;99.90;;;;;;5013525;28;20167;-69
2021/11/05 01:13:50;;;;;;;0.30;0.30;;;6.30;99.90;;;;;;5015619;28;20680;-69
2021/11/05 01:16:16;;;;;;;0.40;0.40;;;6.50;99.90;;;;;;5017488;28;20167;-68
2021/11/05 01:18:42;;;;;;;0.30;0.30;;;6.30;99.80;;;;;;5017686;28;20183;-68
2021/11/05 01:21:08;;;;;;;0.38;0.38;;;6.20;99.90;;;;;;5017539;28;20230;-67
2021/11/05 01:23:33;;;;;;;0.40;0.40;;;6.20;99.90;;;;;;5016092;28;20207;-67
2021/11/05 01:25:59;;;;;;;0.30;0.30;;;6.30;99.90;;;;;;5017346;28;20637;-69
2021/11/05 01:28:25;;;;;;;0.30;0.30;;;6.40;99.90;;;;;;5017482;28;20420;-69
2021/11/05 01:30:50;;;;;;;0.30;0.30;;;6.40;99.90;;;;;;5017561;28;20174;-69
2021/11/05 01:33:17;;;;;;;0.30;0.30;;;6.20;99.90;;;;;;5017233;28;20191;-68
2021/11/05 01:35:44;;;;;;;0.35;0.35;;;6.20;99.90;;;;;;5017019;28;20176;-68
2021/11/05 01:38:10;;;;;;;0.40;0.40;;;6.20;99.90;;;;;;5017220;28;20207;-67
2021/11/05 01:40:39;;;;;;;0.32;0.32;;;6.20;99.90;;;;;;5017209;28;20178;-69
2021/11/05 01:43:05;;;;;;;0.30;0.30;;;6.30;99.90;;;;;;5016987;28;20214;-67
2021/11/05 01:45:32;;;;;;;0.30;0.30;;;6.50;99.90;;;;;;5016954;28;20176;-67
2021/11/05 01:47:58;;;;;;;0.30;0.30;;;6.50;99.90;;;;;;5017072;28;20217;-67
2021/11/05 01:50:24;;;;;;;0.30;0.30;;;6.60;99.90;;;;;;5016893;28;20191;-69
2021/11/05 01:52:51;;;;;;;0.30;0.30;;;6.60;99.90;;;;;;5017190;28;20191;-69
2021/11/05 01:55:17;;;;;;;0.40;0.40;;;6.40;99.90;;;;;;5016723;28;20527;-69
2021/11/05 01:57:44;;;;;;;0.30;0.30;;;6.40;99.90;;;;;;5016962;28;20545;-67
2021/11/05 02:00:13;;;;;;;0.40;0.40;;;6.40;99.90;;;;;;5016994;28;20184;-69
2021/11/05 02:02:39;;;;;;;0.30;0.30;;;6.50;99.90;;;;;;5015553;28;20306;-67
2021/11/05 02:05:05;;;;;;;0.35;0.35;;;6.50;99.90;;;;;;5016581;28;20230;-68
2021/11/05 02:07:34;;;;;;;0.30;0.30;;;6.60;99.90;;;;;;5016702;28;20196;-68
2021/11/05 02:10:02;;;;;;;0.30;0.30;;;6.70;99.90;;;;;;5016845;28;20258;-68
2021/11/05 02:12:30;;;;;;;0.30;0.30;;;6.80;99.90;;;;;;5016500;28;20203;-67
2021/11/05 02:14:58;;;;;;;0.30;0.30;;;6.80;99.80;;;;;;5016320;28;20179;-69
2021/11/05 02:17:24;;;;;;;0.40;0.40;;;6.70;99.90;;;;;;5016595;28;20168;-68
2021/11/05 02:19:51;;;;;;;0.30;0.30;;;6.80;99.60;;;;;;5016462;28;20172;-69
2021/11/05 02:22:17;;;;;;;0.40;0.40;;;6.80;99.60;;;;;;5016537;28;20199;-67
2021/11/05 02:24:43;;;;;;;0.40;0.40;;;6.80;99.40;;;;;;5015441;28;20647;-68
2021/11/05 02:27:09;;;;;;;0.30;0.30;;;6.90;99.20;;;;;;5016342;28;20182;-68
2021/11/05 02:29:35;;;;;;;0.30;0.30;;;6.80;99.10;;;;;;5016471;28;20199;-68
2021/11/05 02:32:02;;;;;;;0.47;0.47;;;6.90;99.20;;;;;;5016158;28;20422;-67
2021/11/05 02:34:29;;;;;;;0.30;0.30;;;6.80;99.20;;;;;;5014904;28;20171;-68
2021/11/05 02:36:55;;;;;;;0.30;0.30;;;6.80;99.20;;;;;;5016059;28;20255;-68
2021/11/05 02:39:21;;;;;;;0.30;0.30;;;6.80;99.30;;;;;;5016138;28;20164;-68
2021/11/05 02:41:49;;;;;;;0.40;0.40;;;6.70;99.50;;;;;;5016193;28;20167;-68
2021/11/05 02:44:16;;;;;;;0.40;0.40;;;6.70;99.70;;;;;;5016071;28;20680;-67
2021/11/05 02:46:42;;;;;;;0.30;0.30;;;6.70;99.80;;;;;;5015803;28;20168;-69
2021/11/05 02:49:09;;;;;;;0.30;0.30;;;6.90;99.70;;;;;;5015792;28;20218;-68
2021/11/05 02:51:37;;;;;;;0.32;0.32;;;6.90;99.60;;;;;;5016079;28;20175;-69
2021/11/05 02:54:04;;;;;;;0.40;0.40;;;6.90;99.90;;;;;;5015715;28;20570;-67
2021/11/05 02:56:30;;;;;;;0.40;0.40;;;6.90;99.30;;;;;;5015534;28;20634;-67
2021/11/05 02:58:58;;;;;;;0.30;0.30;;;7.00;99.50;;;;;;5015717;28;20180;-68
2021/11/05 03:01:25;;;;;;;0.40;0.40;;;7.00;99.50;;;;;;5015684;28;20203;-67
2021/11/05 03:03:51;;;;;;;0.30;0.30;;;7.00;99.50;;;;;;5015616;28;20705;-68
2021/11/05 03:06:16;;;;;;;0.30;0.30;;;6.90;99.40;;;;;;5015779;28;20168;-69
2021/11/05 03:08:43;;;;;;;0.30;0.30;;;7.00;99.30;;;;;;5015741;28;20742;-68
2021/11/05 03:11:12;;;;;;;0.30;0.30;;;7.00;99.30;;;;;;5015592;28;20179;-69
2021/11/05 03:13:42;;;;;;;0.30;0.30;;;6.90;99.20;;;;;;5015218;28;20199;-69
2021/11/05 03:16:08;;;;;;;0.32;0.32;;;7.00;99.30;;;;;;5015516;28;20195;-66
2021/11/05 03:18:39;;;;;;;0.30;0.30;;;7.00;99.40;;;;;;5015530;28;20262;-68
2021/11/05 03:21:04;;;;;;;0.30;0.30;;;6.90;99.40;;;;;;5015536;28;20178;-68
2021/11/05 03:23:30;;;;;;;0.30;0.30;;;6.90;99.40;;;;;;5015273;28;20681;-69
2021/11/05 03:25:56;;;;;;;0.40;0.40;;;6.90;99.50;;;;;;5015001;28;20171;-67
2021/11/05 03:28:21;;;;;;;0.33;0.33;;;6.90;99.60;;;;;;5015149;28;20727;-69
2021/11/05 03:30:47;;;;;;;0.30;0.30;;;7.00;99.60;;;;;;5015511;28;20202;-68
2021/11/05 03:33:14;;;;;;;0.30;0.30;;;7.00;99.50;;;;;;5015205;28;20192;-68
2021/11/05 03:35:40;;;;;;;0.30;0.30;;;7.00;99.30;;;;;;5014975;28;20551;-67
2021/11/05 03:38:05;;;;;;;0.30;0.30;;;7.00;99.20;;;;;;5015172;28;20206;-68
2021/11/05 03:40:33;;;;;;;0.30;0.30;;;7.10;99.30;;;;;;5015060;28;20833;-68
2021/11/05 03:42:59;;;;;;;0.30;0.30;;;7.10;99.20;;;;;;5014751;28;20744;-69
2021/11/05 03:45:24;;;;;;;0.30;0.30;;;7.10;99.20;;;;;;5014852;28;20184;-67
2021/11/05 03:47:50;;;;;;;0.30;0.30;;;7.00;99.30;;;;;;5014767;28;20187;-67
2021/11/05 03:50:16;;;;;;;0.30;0.30;;;7.00;99.60;;;;;;5014618;28;20179;-67
2021/11/05 03:52:42;;;;;;;0.30;0.30;;;7.00;99.60;;;;;;5014558;28;20357;-66
2021/11/05 03:55:08;;;;;;;0.30;0.30;;;7.00;99.60;;;;;;5014506;28;20187;-67
2021/11/05 03:57:34;;;;;;;0.30;0.30;;;7.00;99.60;;;;;;5014644;28;20402;-69
2021/11/05 04:00:00;;;;;;;0.30;0.30;;;7.20;99.80;;;;;;5014658;28;20406;-69
2021/11/05 04:02:26;;;;;;;0.30;0.30;;;7.20;99.70;;;;;;5014408;28;20234;-69
2021/11/05 04:04:55;;;;;;;0.40;0.40;;;7.20;99.50;;;;;;5014488;28;20523;-68
2021/11/05 04:07:22;;;;;;;0.30;0.30;;;7.30;99.50;;;;;;5014599;28;20203;-68
2021/11/05 04:09:48;;;;;;;0.77;0.77;;;7.10;99.40;;;;;;5014829;28;20172;-69
2021/11/05 04:12:14;;;;;;;0.30;0.30;;;7.00;99.70;;;;;;5014534;28;20187;-68
2021/11/05 04:14:40;;;;;;;0.30;0.30;;;6.70;99.90;;;;;;5014349;28;20992;-68
2021/11/05 04:17:06;;;;;;;0.30;0.30;;;6.80;99.90;;;;;;5014258;28;20258;-67
2021/11/05 04:19:31;;;;;;;0.30;0.30;;;6.80;99.90;;;;;;5014308;28;20410;-69
2021/11/05 04:21:57;;;;;;;0.30;0.30;;;6.80;99.90;;;;;;5013963;28;20283;-69
2021/11/05 04:24:23;;;;;;;0.30;0.30;;;7.00;99.90;;;;;;5014186;28;20168;-68
2021/11/05 04:26:49;;;;;;;0.30;0.30;;;7.10;99.90;;;;;;5013970;28;20167;-67
2021/11/05 04:29:16;;;;;;;0.30;0.30;;;7.20;99.90;;;;;;5014138;28;20421;-68
2021/11/05 04:31:41;;;;;;;0.30;0.30;;;7.20;99.80;;;;;;5014161;28;20190;-68
2021/11/05 04:34:07;;;;;;;0.30;0.30;;;7.30;99.70;;;;;;5013961;28;20278;-69
2021/11/05 04:36:33;;;;;;;0.30;0.30;;;7.30;99.60;;;;;;5013792;28;20174;-68
2021/11/05 04:38:59;;;;;;;0.30;0.30;;;7.30;99.50;;;;;;5013937;28;20178;-68
2021/11/05 04:41:25;;;;;;;0.30;0.30;;;7.30;99.60;;;;;;5012718;28;20250;-67
2021/11/05 04:43:51;;;;;;;0.60;0.60;;;7.40;99.60;;;;;;5013886;28;20976;-68
2021/11/05 04:46:17;;;;;;;0.30;0.30;;;7.40;99.50;;;;;;5013884;28;20445;-68
2021/11/05 04:48:43;;;;;;;0.30;0.30;;;7.30;99.50;;;;;;5013279;28;20160;-67
2021/11/05 04:51:09;;;;;;;0.30;0.30;;;7.30;99.50;;;;;;5013889;28;20561;-69
2021/11/05 04:53:34;;;;;;;0.50;0.50;;;7.30;99.60;;;;;;5013642;28;20505;-69
2021/11/05 04:56:00;;;;;;;0.30;0.30;;;7.30;99.50;;;;;;5013924;28;20531;-67
2021/11/05 04:58:26;;;;;;;0.30;0.30;;;7.30;99.40;;;;;;5013780;28;20171;-68
2021/11/05 05:00:51;;;;;;;0.30;0.30;;;7.30;99.40;;;;;;5013643;28;20186;-69
2021/11/05 05:03:17;;;;;;;0.30;0.30;;;7.30;99.60;;;;;;5013687;28;20203;-69
2021/11/05 05:05:43;;;;;;;0.63;0.63;;;7.30;99.60;;;;;;5013496;28;20688;-68
2021/11/05 05:08:08;;;;;;;0.30;0.30;;;7.30;99.50;;;;;;5013679;28;20179;-68
2021/11/05 05:10:34;;;;;;;0.30;0.30;;;7.20;99.40;;;;;;5013672;28;20235;-67
2021/11/05 05:13:01;;;;;;;0.30;0.30;;;7.20;99.40;;;;;;5013614;28;20191;-68
2021/11/05 05:15:26;;;;;;;0.30;0.30;;;7.30;99.40;;;;;;5013575;28;20172;-67
2021/11/05 05:17:52;;;;;;;0.30;0.30;;;7.30;99.60;;;;;;5013684;28;20180;-68
2021/11/05 05:20:19;;;;;;;0.30;0.30;;;7.30;99.60;;;;;;5013696;28;20171;-68
2021/11/05 05:22:45;;;;;;;0.30;0.30;;;7.30;99.50;;;;;;5013590;28;20865;-69
2021/11/05 05:25:12;;;;;;;0.30;0.30;;;7.30;99.50;;;;;;5012113;28;20172;-68
2021/11/05 05:27:39;;;;;;;0.30;0.30;;;7.20;99.70;;;;;;5013682;28;20652;-69
2021/11/05 05:30:08;;;;;;;0.30;0.30;;;7.20;99.80;;;;;;5013530;28;20257;-67
2021/11/05 05:32:34;;;;;;;0.30;0.30;;;7.20;99.90;;;;;;5013437;28;20195;-69
2021/11/05 05:35:00;;;;;;;0.30;0.30;;;7.20;99.90;;;;;;5013197;28;20180;-67
2021/11/05 05:37:26;;;;;;;0.30;0.30;;;7.20;99.70;;;;;;5013324;28;20226;-67
2021/11/05 05:39:51;;;;;;;0.30;0.30;;;7.10;99.60;;;;;;5013403;28;20577;-68
2021/11/05 05:42:17;;;;;;;0.30;0.30;;;7.00;99.90;;;;;;5013210;28;20282;-66
2021/11/05 05:44:43;;;;;;;0.30;0.30;;;7.00;99.90;;;;;;5013415;28;20218;-67
2021/11/05 05:47:09;;;;;;;0.30;0.30;;;7.10;99.90;;;;;;5013103;28;20175;-69
2021/11/05 05:49:35;;;;;;;0.30;0.30;;;7.10;99.90;;;;;;5013151;28;20180;-69
2021/11/05 05:52:00;;;;;;;0.30;0.30;;;7.20;99.90;;;;;;5013101;28;20223;-68
2021/11/05 05:54:26;;;;;;;0.30;0.30;;;7.30;99.90;;;;;;5013546;28;20175;-68
2021/11/05 05:56:52;;;;;;;0.50;0.50;;;7.30;99.90;;;;;;5013117;28;20179;-67
2021/11/05 05:59:21;;;;;;;0.30;0.30;;;7.30;99.60;;;;;;5013162;28;20165;-67
2021/11/05 06:01:46;;;;;;;0.40;0.40;;;7.30;99.40;;;;;;5016534;28;20493;-68
2021/11/05 06:04:12;;;;;;;0.30;0.30;;;7.10;99.40;;;;;;5016788;28;20672;-69
2021/11/05 06:06:38;;;;;;;0.30;0.30;;;7.20;99.60;;;;;;5016582;28;20172;-69
2021/11/05 06:09:03;;;;;;;0.30;0.30;;;7.20;99.70;;;;;;5016695;28;20541;-68
2021/11/05 06:11:29;;;;;;;0.30;0.30;;;7.20;99.80;;;;;;5016708;28;20174;-67
2021/11/05 06:13:55;;;;;;;0.40;0.40;;;7.20;99.80;;;;;;5016463;28;20231;-68
2021/11/05 06:16:21;;;;;;;0.30;0.30;;;7.20;99.90;;;;;;5016365;28;20183;-67
2021/11/05 06:18:47;;;;;;;0.30;0.30;;;7.30;99.90;;;;;;5016552;28;20185;-69
2021/11/05 06:21:12;;;;;;;0.50;0.50;;;7.30;99.60;;;;;;5016421;28;20528;-68
2021/11/05 06:23:38;;;;;;;0.30;0.30;;;7.30;99.60;;;;;;5016173;28;20935;-68
2021/11/05 06:26:04;;;;;;;0.30;0.30;;;7.30;99.70;;;;;;5016281;28;20167;-69
2021/11/05 06:28:29;;;;;;;0.30;0.30;;;7.40;99.80;;;;;;5016332;28;20172;-69
2021/11/05 06:30:55;;;;;;;0.30;0.30;;;7.40;99.90;;;;;;5016480;28;20640;-69
2021/11/05 06:33:21;;;;;;;0.30;0.30;;;7.50;99.60;;;;;;5016323;28;20199;-68
2021/11/05 06:35:47;;;;;;;0.40;0.40;;;7.50;99.30;;;;;;5016180;28;20168;-67
2021/11/05 06:38:13;;;;;;;0.30;0.30;;;7.50;99.20;;;;;;5016167;28;20171;-68
2021/11/05 06:40:40;;;;;;;0.40;0.40;;;7.50;99.40;;;;;;5016160;28;20175;-67
2021/11/05 06:43:06;;;;;;;0.30;0.30;;;7.50;99.30;;;;;;5015975;28;20210;-69
2021/11/05 06:45:31;;;;;;;0.30;0.30;;;7.50;99.30;;;;;;5015871;28;20671;-67
2021/11/05 06:47:57;;;;;;;0.30;0.30;;;7.50;99.30;;;;;;5016103;28;20179;-69
2021/11/05 06:50:23;;;;;;;0.30;0.30;;;7.50;99.30;;;;;;5015933;28;20274;-68
2021/11/05 06:52:49;;;;;;;0.30;0.30;;;7.60;99.40;;;;;;5015775;28;20986;-69
2021/11/05 06:55:15;;;;;;;0.30;0.30;;;7.60;99.40;;;;;;5015699;28;20172;-68
2021/11/05 06:57:41;;;;;;;0.30;0.30;;;7.70;99.50;;;;;;5015997;28;20532;-68
2021/11/05 07:00:09;;;;;;;0.30;0.30;;;7.70;99.20;;;;;;5015911;28;20167;-67
2021/11/05 07:02:40;;;;;;;0.30;0.30;;;7.60;98.90;;;;;;5015666;28;20486;-68
2021/11/05 07:05:10;;;;;;;0.30;0.30;;;7.70;99.10;;;;;;5015549;28;20201;-69
2021/11/05 07:07:36;;;;;;;0.35;0.35;;;7.70;99.10;;;;;;5015784;28;20170;-69
2021/11/05 07:10:03;;;;;;;0.40;0.40;;;7.70;99.20;;;;;;5015706;28;20539;-68
2021/11/05 07:12:29;;;;;;;0.30;0.30;;;7.70;99.20;;;;;;5013718;28;20913;-69
2021/11/05 07:14:54;;;;;;;0.30;0.30;;;7.80;99.20;;;;;;5015257;28;20194;-68
2021/11/05 07:17:20;;;;;;;0.40;0.40;;;7.80;99.00;;;;;;5015403;28;20711;-69
2021/11/05 07:19:46;;;;;;;0.30;0.30;;;7.80;98.60;;;;;;5015541;28;20179;-67
2021/11/05 07:22:11;;;;;;;0.30;0.30;;;7.70;98.40;;;;;;5015375;28;20215;-67
2021/11/05 07:24:38;;;;;;;0.30;0.30;;;7.70;98.60;;;;;;5015807;28;20221;-69
2021/11/05 07:27:05;;;;;;;0.30;0.30;;;7.70;98.60;;;;;;5015233;28;20172;-69
2021/11/05 07:29:32;;;;;;;0.30;0.30;;;7.70;99.00;;;;;;5015115;28;20590;-68
2021/11/05 07:32:00;;;;;;;0.30;0.30;;;7.40;98.60;;;;;;5015028;28;20171;-69
2021/11/05 07:34:32;;;;;;;0.30;0.30;;;7.50;99.10;;;;;;5015084;28;20571;-68
2021/11/05 07:37:02;;;;;;;0.30;0.30;;;7.50;99.20;;;;;;5015019;28;20634;-69
2021/11/05 07:39:29;;;;;;;0.30;0.30;;;7.60;99.00;;;;;;5015273;28;20555;-68
2021/11/05 07:41:54;;;;;;;0.30;0.30;;;7.50;98.70;;;;;;5015106;28;20164;-69
2021/11/05 07:44:20;;;;;;;0.30;0.30;;;7.50;98.70;;;;;;5015000;28;20200;-67
2021/11/05 07:46:47;;;;;;;0.40;0.40;;;7.60;98.70;;;;;;5014767;28;20395;-68
2021/11/05 07:49:14;;;;;;;0.40;0.40;;;7.60;98.70;;;;;;5014811;28;20498;-68
2021/11/05 07:51:39;;;;;;;0.30;0.30;;;7.60;98.90;;;;;;5014937;28;20246;-67
2021/11/05 07:54:07;;;;;;;0.30;0.30;;;7.60;98.40;;;;;;5014658;28;20220;-67
2021/11/05 07:56:33;;;;;;;0.30;0.30;;;7.50;98.20;;;;;;5014415;28;20245;-67
2021/11/05 07:58:59;;;;;;;0.30;0.30;;;7.60;98.40;;;;;;5014648;28;20169;-69
2021/11/05 08:01:24;;;;;;;0.30;0.30;;;7.70;98.50;;;;;;5014684;28;20223;-69
2021/11/05 08:03:50;;;;;;;0.33;0.33;;;7.70;98.10;;;;;;5014773;28;20203;-68
2021/11/05 08:06:16;;;;;;;0.30;0.30;;;7.80;98.30;;;;;;5014520;28;20167;-69
2021/11/05 08:08:42;;;;;;;0.30;0.30;;;7.90;98.50;;;;;;5014619;28;20299;-69
2021/11/05 08:11:08;;;;;;;0.30;0.30;;;8.00;98.50;;;;;;5029772;28;20177;-68
2021/11/05 08:13:34;;;;;;;0.30;0.30;;;8.10;98.10;;;;;;5013166;28;20220;-68
2021/11/05 08:15:59;;;;;;;0.30;0.30;;;8.10;97.40;;;;;;5014257;28;20223;-69
2021/11/05 08:18:25;;;;;;;0.30;0.30;;;8.10;96.80;;;;;;5014384;28;20169;-69
2021/11/05 08:20:50;;;;;;;0.30;0.30;;;8.10;96.60;;;;;;5014381;28;20661;-68
2021/11/05 08:23:16;;;;;;;0.30;0.30;;;8.10;96.40;;;;;;5013303;28;20201;-69
2021/11/05 08:25:44;;;;;;;0.30;0.30;;;8.20;96.40;;;;;;5014021;28;20173;-68
2021/11/05 08:28:11;;;;;;;0.30;0.30;;;8.20;96.40;;;;;;5014385;28;20312;-69
2021/11/05 08:30:36;;;;;;;0.30;0.30;;;8.30;96.80;;;;;;5014130;28;20168;-67
2021/11/05 08:33:02;;;;;;;0.30;0.30;;;8.50;96.50;;;;;;5014206;28;20217;-69
2021/11/05 08:35:30;;;;;;;0.30;0.30;;;8.60;96.50;;;;;;5014000;28;20184;-68
2021/11/05 08:37:57;;;;;;;0.30;0.30;;;8.70;96.00;;;;;;5014148;28;20438;-68
2021/11/05 08:40:22;;;;;;;0.30;0.30;;;8.70;95.70;;;;;;5014076;28;20174;-68
2021/11/05 08:42:50;;;;;;;0.30;0.30;;;8.60;95.80;;;;;;5013822;28;20205;-69
2021/11/05 08:45:15;;;;;;;0.30;0.30;;;8.60;96.30;;;;;;5013962;28;20184;-69
2021/11/05 08:47:43;;;;;;;0.30;0.30;;;8.50;96.30;;;;;;5013937;28;20169;-68
2021/11/05 08:50:16;;;;;;;0.30;0.30;;;8.40;96.30;;;;;;5013895;28;20855;-67
2021/11/05 08:52:42;;;;;;;0.30;0.30;;;8.30;96.40;;;;;;5013987;28;20226;-68
2021/11/05 08:55:09;;;;;;;0.30;0.30;;;8.30;96.60;;;;;;5013594;28;20262;-68
2021/11/05 08:57:36;;;;;;;0.30;0.30;;;8.30;96.80;;;;;;5013780;28;20181;-68
2021/11/05 09:00:06;;;;;;;0.30;0.30;;;8.30;96.80;;;;;;5013801;28;20173;-68
2021/11/05 09:02:32;;;;;;;0.30;0.30;;;8.40;96.70;;;;;;5013605;28;20208;-69
2021/11/05 09:04:58;;;;;;;0.30;0.30;;;8.40;97.00;;;;;;5013540;28;20169;-67
2021/11/05 09:07:25;;;;;;;0.30;0.30;;;8.50;96.80;;;;;;5013842;28;20738;-68
2021/11/05 09:09:50;;;;;;;0.30;0.30;;;8.60;96.70;;;;;;5013635;28;20161;-69
2021/11/05 09:12:16;;;;;;;0.30;0.30;;;8.40;96.60;;;;;;5012300;28;20181;-69
2021/11/05 09:14:42;;;;;;;0.30;0.30;;;8.30;96.50;;;;;;5013569;28;20172;-68
2021/11/05 09:17:08;;;;;;;0.33;0.33;;;8.30;96.90;;;;;;5013589;28;20176;-70
2021/11/05 09:19:34;;;;;;;0.30;0.30;;;8.40;97.10;;;;;;5013711;28;20203;-67
2021/11/05 09:22:00;;;;;;;0.30;0.30;;;8.30;96.80;;;;;;5013633;28;20204;-66
2021/11/05 09:24:25;;;;;;;0.30;0.30;;;8.20;97.10;;;;;;5013852;28;20952;-68
2021/11/05 09:26:51;;;;;;;0.30;0.30;;;8.30;97.40;;;;;;5013333;28;20178;-68
2021/11/05 09:29:18;;;;;;;0.63;0.63;;;8.20;97.50;;;;;;5013516;28;20209;-68
2021/11/05 09:31:44;;;;;;;0.30;0.30;;;8.30;97.70;;;;;;5028734;28;20638;-68
2021/11/05 09:34:10;;;;;;;0.30;0.30;;;8.40;97.80;;;;;;5012979;28;20233;-68
2021/11/05 09:36:35;;;;;;;0.30;0.30;;;8.40;97.60;;;;;;5017087;28;20204;-67
2021/11/05 09:39:02;;;;;;;0.40;0.40;;;8.50;97.20;;;;;;5017470;28;20182;-68
2021/11/05 09:41:29;;;;;;;0.30;0.30;;;8.60;97.30;;;;;;5017311;28;20644;-69
2021/11/05 09:43:55;;;;;;;0.30;0.30;;;8.70;97.10;;;;;;5017166;28;20624;-69
2021/11/05 09:46:21;;;;;;;0.40;0.40;;;8.70;96.90;;;;;;5017075;28;20178;-67
2021/11/05 09:48:49;;;;;;;0.30;0.30;;;8.70;96.80;;;;;;5017116;28;20185;-67
2021/11/05 09:51:15;;;;;;;0.30;0.30;;;8.70;97.00;;;;;;5017156;28;20963;-67
2021/11/05 09:53:41;;;;;;;0.30;0.30;;;8.80;96.80;;;;;;5016937;28;20210;-69
2021/11/05 09:56:13;;;;;;;0.30;0.30;;;8.90;96.90;;;;;;5016940;28;20261;-68
2021/11/05 09:58:39;;;;;;;0.30;0.30;;;8.90;97.10;;;;;;5017093;28;20213;-69
2021/11/05 10:01:09;;;;;;;0.30;0.30;;;9.00;97.00;;;;;;5016848;28;20615;-68
2021/11/05 10:03:36;;;;;;;0.30;0.30;;;9.10;96.80;;;;;;5016873;28;20460;-68
2021/11/05 10:06:05;;;;;;;0.30;0.30;;;9.10;96.60;;;;;;5016556;28;20387;-69
2021/11/05 10:08:33;;;;;;;0.30;0.30;;;9.10;96.30;;;;;;5015493;28;20718;-66
2021/11/05 10:11:01;;;;;;;0.30;0.30;;;9.10;95.90;;;;;;5016742;28;20183;-68
2021/11/05 10:13:27;;;;;;;0.30;0.30;;;9.20;96.30;;;;;;5016690;28;20200;-67
2021/11/05 10:15:56;;;;;;;0.30;0.30;;;9.40;96.60;;;;;;5016435;28;20711;-69
2021/11/05 10:18:29;;;;;;;0.30;0.30;;;9.50;96.50;;;;;;5016686;28;20186;-68
2021/11/05 10:21:15;;;;;;;0.38;0.38;;;9.60;95.90;;;;;;5016943;28;20203;-67
2021/11/05 10:23:43;;;;;;;0.30;0.30;;;9.70;95.80;;;;;;5016422;28;20681;-67
2021/11/05 10:26:32;;;;;;;0.30;0.30;;;9.80;95.60;;;;;;5016489;28;20259;-67
2021/11/05 10:28:59;;;;;;;0.30;0.30;;;10.00;94.90;;;;;;5016821;28;20649;-68
2021/11/05 10:31:29;;;;;;;0.30;0.30;;;10.30;94.30;;;;;;5016315;28;20180;-69
2021/11/05 10:33:55;;;;;;;0.30;0.30;;;10.50;94.20;;;;;;5016286;28;20187;-67
2021/11/05 10:36:23;;;;;;;0.30;0.30;;;10.50;93.20;;;;;;5016388;28;20517;-69
2021/11/05 10:38:52;;;;;;;0.30;0.30;;;10.10;92.80;;;;;;5016333;28;20171;-68
2021/11/05 10:41:20;;;;;;;0.30;0.30;;;10.00;93.30;;;;;;5016315;28;20180;-69
2021/11/05 10:43:48;;;;;;;0.30;0.30;;;9.80;94.30;;;;;;5015919;28;20192;-68
2021/11/05 10:46:30;;;;;;;0.30;0.30;;;9.90;94.20;;;;;;5015227;28;20175;-68
2021/11/05 10:48:59;;;;;;;0.30;0.30;;;10.10;93.70;;;;;;5016085;28;20172;-66
2021/11/05 10:51:27;;;;;;;0.30;0.30;;;10.30;92.60;;;;;;5016175;28;20187;-68
2021/11/05 10:53:54;;;;;;;0.30;0.30;;;10.50;92.20;;;;;;5016251;28;20562;-68
2021/11/05 10:56:25;;;;;;;0.30;0.30;;;10.40;92.20;;;;;;5015708;28;20187;-68
2021/11/05 10:58:58;;;;;;;0.30;0.30;;;10.40;92.30;;;;;;5016075;28;20178;-69
2021/11/05 11:01:30;;;;;;;0.30;0.30;;;10.60;92.70;;;;;;5016045;28;20235;-67
2021/11/05 11:04:00;;;;;;;0.30;0.30;;;10.70;93.30;;;;;;5015824;28;20587;-67
2021/11/05 11:06:40;;;;;;;0.40;0.40;;;10.70;93.10;;;;;;5015471;28;20167;-69
2021/11/05 11:09:05;;;;;;;0.30;0.30;;;10.70;92.50;;;;;;5015833;28;20167;-68
2021/11/05 11:11:45;;;;;;;0.30;0.30;;;10.80;93.30;;;;;;5015663;28;20179;-67
2021/11/05 11:14:18;;;;;;;0.30;0.30;;;10.90;93.30;;;;;;5015499;28;20187;-68
2021/11/05 11:16:58;;;;;;;0.30;0.30;;;11.00;93.10;;;;;;5015265;28;20262;-68
2021/11/05 11:19:29;;;;;;;0.30;0.30;;;11.10;92.60;;;;;;5015378;28;20537;-68
2021/11/05 11:21:59;;;;;;;0.30;0.30;;;11.10;93.00;;;;;;5015576;28;20508;-69
2021/11/05 11:24:28;;;;;;;0.30;0.30;;;11.30;92.50;;;;;;5015180;28;20253;-68
2021/11/05 11:26:55;;;;;;;0.30;0.30;;;11.50;92.20;;;;;;5015008;28;20186;-68
2021/11/05 11:29:22;;;;;;;0.30;0.30;;;11.60;92.30;;;;;;5015402;28;20180;-67
2021/11/05 11:31:49;;;;;;;0.40;0.40;;;11.50;91.60;;;;;;5015196;28;20186;-69
2021/11/05 11:34:15;;;;;;;0.30;0.30;;;11.40;92.30;;;;;;5015036;28;20558;-68
2021/11/05 11:36:45;;;;;;;0.30;0.30;;;11.40;91.40;;;;;;5014853;28;20179;-67
2021/11/05 11:39:14;;;;;;;0.30;0.30;;;11.40;91.10;;;;;;5015198;28;20172;-68
2021/11/05 11:41:41;;;;;;;0.30;0.30;;;11.30;91.10;;;;;;5015106;28;20175;-67
2021/11/05 11:44:09;;;;;;;0.30;0.30;;;11.20;91.30;;;;;;5014786;28;20202;-68
2021/11/05 11:46:57;;;;;;;0.30;0.30;;;11.20;92.10;;;;;;5014754;28;20186;-68
2021/11/05 11:49:32;;;;;;;0.30;0.30;;;10.90;92.40;;;;;;5014866;28;20226;-67
2021/11/05 11:51:57;;;;;;;0.30;0.30;;;10.60;94.30;;;;;;5014881;28;20166;-68
2021/11/05 11:54:29;;;;;;;0.30;0.30;;;10.70;93.70;;;;;;5014749;28;20267;-68
2021/11/05 11:57:13;;;;;;;0.30;0.30;;;10.90;93.30;;;;;;5014596;28;20171;-69
2021/11/05 11:59:40;;;;;;;0.30;0.30;;;10.90;91.60;;;;;;5014984;28;20156;-68
2021/11/05 12:02:32;;;;;;;0.30;0.30;;;10.90;92.20;;;;;;5014713;28;20180;-67
2021/11/05 12:05:21;;;;;;;0.30;0.30;;;10.80;93.20;;;;;;5014673;28;20193;-69
2021/11/05 12:08:36;;;;;;;0.30;0.30;;;10.80;93.10;;;;;;5014274;28;20172;-69
2021/11/05 12:11:07;;;;;;;0.30;0.30;;;10.60;94.00;;;;;;5029637;28;20187;-67
2021/11/05 12:13:33;;;;;;;0.30;0.30;;;10.80;93.20;;;;;;5014512;28;20578;-68
2021/11/05 12:16:13;;;;;;;0.30;0.30;;;11.10;92.80;;;;;;5014297;28;20210;-69
2021/11/05 12:21:41;;;;;;;0.32;0.32;;;11.30;92.00;;;;;;5014362;28;20269;-69
2021/11/05 12:24:16;;;;;;;0.30;0.30;;;11.40;93.10;;;;;;5014110;28;20231;-67
2021/11/05 12:27:02;;;;;;;0.30;0.30;;;11.30;91.90;;;;;;5014266;28;20645;-68
2021/11/05 12:29:39;;;;;;;0.30;0.30;;;11.50;91.60;;;;;;5014095;28;20190;-68
2021/11/05 12:32:16;;;;;;;0.30;0.30;;;11.70;91.00;;;;;;5014288;28;20179;-69
2021/11/05 12:34:52;;;;;;;0.30;0.30;;;11.80;90.50;;;;;;5014060;28;20534;-68
2021/11/05 12:37:40;;;;;;;0.30;0.30;;;11.80;91.10;;;;;;5014004;28;20167;-68
2021/11/05 12:40:21;;;;;;;0.30;0.30;;;11.70;91.00;;;;;;5012882;28;20174;-69
2021/11/05 12:42:52;;;;;;;0.30;0.30;;;11.60;92.20;;;;;;5014008;28;20605;-68
2021/11/05 12:45:23;;;;;;;0.30;0.30;;;11.20;92.50;;;;;;5013743;28;20167;-68
2021/11/05 12:48:00;;;;;;;0.30;0.30;;;10.80;93.70;;;;;;5014013;28;20297;-69
2021/11/05 12:50:34;;;;;;;0.30;0.30;;;10.40;94.80;;;;;;5013707;28;20183;-68
2021/11/05 12:53:09;;;;;;;0.30;0.30;;;10.10;95.70;;;;;;5013960;28;20199;-68
2021/11/05 12:55:40;;;;;;;0.30;0.30;;;9.80;96.60;;;;;;5013670;28;20206;-69
2021/11/05 12:58:08;;;;;;;0.30;0.30;;;9.50;97.60;;;;;;5014157;28;20192;-67
2021/11/05 13:00:40;;;;;;;0.70;0.70;;;9.20;97.10;;;;;;5013809;28;20178;-67